Sea Drift — WDC2818 — position and weather

sailwx.info

Track history (hours):
 
Tides and Currents Weather Stations Pressure Air Temp Water Temp Dewpoint Dewpoint Depression Visibility Wind Speed Wind Dir Waves Ship Positions

Sea Drift

Owner: Marquette Transportation Company Gulf-Inland, LLC, Jefferson, LA. More information available from US FCC via Universal Licensing System and Coast Guard Vessel Documentation Center.

Last reported at 2015-Mar-28 21:33 UTC. Time now 2015-Mar-28 22:19 UTC.
Position N 29°41' W 094°59'.

Length 23 m; draft 3 m.

Type: Towing. MMSI: 366998080.

Date/timePositionNaut miles runAvg speedWind from/ knotsBaromVisibWave heightAir tempDewpointWater temp
2015-Mar-28 21:33N 29°41' W 094°59'6 6.5
2015-Mar-28 20:33N 29°35' W 094°56'8 8.0
2015-Mar-28 19:31N 29°28' W 094°51'6 4.6
2015-Mar-28 18:12N 29°22' W 094°51'4 0.3
2015-Mar-28 06:33N 29°22' W 094°47'12 0.7
2015-Mar-27 13:34N 29°32' W 094°54'8 8.2
2015-Mar-27 12:33N 29°40' W 094°58'7 7.4
2015-Mar-27 11:33N 29°45' W 095°04'2 2.0
2015-Mar-27 10:28N 29°47' W 095°04'0 0.0
2015-Mar-27 04:33N 29°47' W 095°04'2 1.6
2015-Mar-27 03:32N 29°46' W 095°05'1 0.6
2015-Mar-27 02:19N 29°45' W 095°06'2 0.4
2015-Mar-26 20:33N 29°47' W 095°04'2 2.3
2015-Mar-26 19:33N 29°45' W 095°04'5 4.6
2015-Mar-26 18:33N 29°42' W 094°60'5 4.6
2015-Mar-26 17:34N 29°38' W 094°58'4 4.5
2015-Mar-26 16:33N 29°34' W 094°55'5 5.1
2015-Mar-26 15:33N 29°30' W 094°52'3 0.1
2015-Mar-25 07:25N 29°32' W 094°54'6 6.8
2015-Mar-25 06:33N 29°37' W 094°57'7 6.7
2015-Mar-25 05:33N 29°43' W 095°01'5 5.3
2015-Mar-25 04:33N 29°46' W 095°06'0 0.0
2015-Mar-25 03:34N 29°46' W 095°06'0 0.3
2015-Mar-25 02:11N 29°46' W 095°06'0 0.0
2015-Mar-25 00:14N 29°46' W 095°06'2 2.4
2015-Mar-24 23:25N 29°47' W 095°04'3 3.7
2015-Mar-24 22:33N 29°44' W 095°03'6 6.0
2015-Mar-24 21:33N 29°40' W 094°58'7 7.0
2015-Mar-24 20:33N 29°33' W 094°55'  
2015-Mar-22 12:33N 29°37' W 095°01'1 0.7
2015-Mar-22 11:33N 29°37' W 095°01'0 0.0
2015-Mar-22 10:33N 29°37' W 095°01'0 0.0
2015-Mar-22 09:33N 29°37' W 095°01'0 0.0
2015-Mar-22 08:33N 29°37' W 095°01'0 0.0
2015-Mar-22 07:33N 29°37' W 095°01'0 0.0
2015-Mar-22 06:33N 29°37' W 095°01'0 0.0
2015-Mar-22 05:33N 29°37' W 095°01'0 0.0
2015-Mar-22 04:33N 29°37' W 095°01'0 0.0
2015-Mar-22 03:33N 29°37' W 095°01'0 0.0
2015-Mar-22 02:33N 29°37' W 095°01'0 0.0
2015-Mar-22 01:33N 29°37' W 095°01'0 0.0
2015-Mar-22 00:33N 29°37' W 095°01'0 0.0
2015-Mar-21 23:33N 29°37' W 095°01'0 0.0
2015-Mar-21 22:33N 29°37' W 095°01'3 3.0
2015-Mar-21 21:33N 29°37' W 094°58'5 5.3
2015-Mar-21 20:33N 29°42' W 094°60'1 0.8
2015-Mar-21 19:33N 29°42' W 095°01'5 4.9
2015-Mar-21 18:32N 29°46' W 095°05'1 0.8
2015-Mar-21 17:06N 29°47' W 095°04'0 0.1
2015-Mar-21 16:22N 29°47' W 095°05'0 0.0
2015-Mar-21 14:11N 29°47' W 095°05'1 0.9
2015-Mar-21 13:33N 29°47' W 095°04'1 0.4
2015-Mar-21 12:12N 29°47' W 095°05'0 0.0
2015-Mar-21 09:26N 29°47' W 095°05'0 0.0
2015-Mar-21 07:04N 29°47' W 095°05'0 0.0
2015-Mar-21 01:16N 29°47' W 095°04'1 0.6
2015-Mar-21 00:20N 29°47' W 095°04'0 0.2
2015-Mar-20 23:27N 29°47' W 095°04'0 0.2
2015-Mar-20 22:22N 29°48' W 095°04'1 1.5
2015-Mar-20 21:29N 29°47' W 095°06'0 0.0
2015-Mar-20 14:11N 29°47' W 095°06'0 0.0
2015-Mar-20 13:33N 29°47' W 095°06'1 0.3
2015-Mar-20 09:31N 29°47' W 095°04'0 0.0
2015-Mar-20 04:30N 29°47' W 095°04'0 0.2
2015-Mar-20 03:23N 29°47' W 095°04'0 0.1
2015-Mar-20 02:30N 29°48' W 095°04'2 2.0
2015-Mar-20 01:33N 29°46' W 095°05'0 0.0
2015-Mar-19 23:33N 29°46' W 095°05'6 5.7
2015-Mar-19 22:33N 29°42' W 095°00'6 6.4
2015-Mar-19 21:33N 29°36' W 094°57'6 5.9
2015-Mar-19 20:33N 29°31' W 094°53'8 6.2
2015-Mar-19 19:20N 29°25' W 094°49'  
Track history (hours):
 
Tides and Currents Weather Stations Pressure Air Temp Water Temp Dewpoint Dewpoint Depression Visibility Wind Speed Wind Dir Waves Ship Positions

Sea Drift

Owner: Marquette Transportation Company Gulf-Inland, LLC, Jefferson, LA. More information available from US FCC via Universal Licensing System and Coast Guard Vessel Documentation Center.

Last reported at 2015-Mar-28 21:33 UTC. Time now 2015-Mar-28 22:19 UTC.
Position N 29°41' W 094°59'.

Length 23 m; draft 3 m.

Type: Towing. MMSI: 366998080.

Date/timePositionNaut miles runAvg speedWind from/ knotsBaromVisibWave heightAir tempDewpointWater temp
2015-Mar-28 21:33N 29°41' W 094°59'6 6.5
2015-Mar-28 20:33N 29°35' W 094°56'8 8.0
2015-Mar-28 19:31N 29°28' W 094°51'6 4.6
2015-Mar-28 18:12N 29°22' W 094°51'4 0.3
2015-Mar-28 06:33N 29°22' W 094°47'12 0.7
2015-Mar-27 13:34N 29°32' W 094°54'8 8.2
2015-Mar-27 12:33N 29°40' W 094°58'7 7.4
2015-Mar-27 11:33N 29°45' W 095°04'2 2.0
2015-Mar-27 10:28N 29°47' W 095°04'0 0.0
2015-Mar-27 04:33N 29°47' W 095°04'2 1.6
2015-Mar-27 03:32N 29°46' W 095°05'1 0.6
2015-Mar-27 02:19N 29°45' W 095°06'2 0.4
2015-Mar-26 20:33N 29°47' W 095°04'2 2.3
2015-Mar-26 19:33N 29°45' W 095°04'5 4.6
2015-Mar-26 18:33N 29°42' W 094°60'5 4.6
2015-Mar-26 17:34N 29°38' W 094°58'4 4.5
2015-Mar-26 16:33N 29°34' W 094°55'5 5.1
2015-Mar-26 15:33N 29°30' W 094°52'3 0.1
2015-Mar-25 07:25N 29°32' W 094°54'6 6.8
2015-Mar-25 06:33N 29°37' W 094°57'7 6.7
2015-Mar-25 05:33N 29°43' W 095°01'5 5.3
2015-Mar-25 04:33N 29°46' W 095°06'0 0.0
2015-Mar-25 03:34N 29°46' W 095°06'0 0.3
2015-Mar-25 02:11N 29°46' W 095°06'0 0.0
2015-Mar-25 00:14N 29°46' W 095°06'2 2.4
2015-Mar-24 23:25N 29°47' W 095°04'3 3.7
2015-Mar-24 22:33N 29°44' W 095°03'6 6.0
2015-Mar-24 21:33N 29°40' W 094°58'7 7.0
2015-Mar-24 20:33N 29°33' W 094°55'  
2015-Mar-22 12:33N 29°37' W 095°01'1 0.7
2015-Mar-22 11:33N 29°37' W 095°01'0 0.0
2015-Mar-22 10:33N 29°37' W 095°01'0 0.0
2015-Mar-22 09:33N 29°37' W 095°01'0 0.0
2015-Mar-22 08:33N 29°37' W 095°01'0 0.0
2015-Mar-22 07:33N 29°37' W 095°01'0 0.0
2015-Mar-22 06:33N 29°37' W 095°01'0 0.0
2015-Mar-22 05:33N 29°37' W 095°01'0 0.0
2015-Mar-22 04:33N 29°37' W 095°01'0 0.0
2015-Mar-22 03:33N 29°37' W 095°01'0 0.0
2015-Mar-22 02:33N 29°37' W 095°01'0 0.0
2015-Mar-22 01:33N 29°37' W 095°01'0 0.0
2015-Mar-22 00:33N 29°37' W 095°01'0 0.0
2015-Mar-21 23:33N 29°37' W 095°01'0 0.0
2015-Mar-21 22:33N 29°37' W 095°01'3 3.0
2015-Mar-21 21:33N 29°37' W 094°58'5 5.3
2015-Mar-21 20:33N 29°42' W 094°60'1 0.8
2015-Mar-21 19:33N 29°42' W 095°01'5 4.9
2015-Mar-21 18:32N 29°46' W 095°05'1 0.8
2015-Mar-21 17:06N 29°47' W 095°04'0 0.1
2015-Mar-21 16:22N 29°47' W 095°05'0 0.0
2015-Mar-21 14:11N 29°47' W 095°05'1 0.9
2015-Mar-21 13:33N 29°47' W 095°04'1 0.4
2015-Mar-21 12:12N 29°47' W 095°05'0 0.0
2015-Mar-21 09:26N 29°47' W 095°05'0 0.0
2015-Mar-21 07:04N 29°47' W 095°05'0 0.0
2015-Mar-21 01:16N 29°47' W 095°04'1 0.6
2015-Mar-21 00:20N 29°47' W 095°04'0 0.2
2015-Mar-20 23:27N 29°47' W 095°04'0 0.2
2015-Mar-20 22:22N 29°48' W 095°04'1 1.5
2015-Mar-20 21:29N 29°47' W 095°06'0 0.0
2015-Mar-20 14:11N 29°47' W 095°06'0 0.0
2015-Mar-20 13:33N 29°47' W 095°06'1 0.3
2015-Mar-20 09:31N 29°47' W 095°04'0 0.0
2015-Mar-20 04:30N 29°47' W 095°04'0 0.2
2015-Mar-20 03:23N 29°47' W 095°04'0 0.1
2015-Mar-20 02:30N 29°48' W 095°04'2 2.0
2015-Mar-20 01:33N 29°46' W 095°05'0 0.0
2015-Mar-19 23:33N 29°46' W 095°05'6 5.7
2015-Mar-19 22:33N 29°42' W 095°00'6 6.4
2015-Mar-19 21:33N 29°36' W 094°57'6 5.9
2015-Mar-19 20:33N 29°31' W 094°53'8 6.2
2015-Mar-19 19:20N 29°25' W 094°49'  

Dump ship's entire track history